sensor_id;sensor_type;location;lat;lon;timestamp;P1;durP1;ratioP1;P2;durP2;ratioP2
36105;SDS011;22159;55.736;38.048;2022-07-22T00:01:31;2.58;;;0.80;;
36105;SDS011;22159;55.736;38.048;2022-07-22T00:03:57;1.63;;;0.90;;
36105;SDS011;22159;55.736;38.048;2022-07-22T00:06:23;1.20;;;0.73;;
36105;SDS011;22159;55.736;38.048;2022-07-22T00:08:50;1.08;;;0.70;;
36105;SDS011;22159;55.736;38.048;2022-07-22T00:11:16;1.02;;;0.90;;
36105;SDS011;22159;55.736;38.048;2022-07-22T00:13:42;1.00;;;0.65;;
36105;SDS011;22159;55.736;38.048;2022-07-22T00:16:08;1.00;;;0.60;;
36105;SDS011;22159;55.736;38.048;2022-07-22T00:18:34;1.27;;;0.80;;
36105;SDS011;22159;55.736;38.048;2022-07-22T00:21:00;1.20;;;0.75;;
36105;SDS011;22159;55.736;38.048;2022-07-22T00:23:26;1.00;;;0.70;;
36105;SDS011;22159;55.736;38.048;2022-07-22T00:25:52;1.75;;;0.80;;
36105;SDS011;22159;55.736;38.048;2022-07-22T00:28:18;0.63;;;0.63;;
36105;SDS011;22159;55.736;38.048;2022-07-22T00:30:45;0.93;;;0.63;;
36105;SDS011;22159;55.736;38.048;2022-07-22T00:33:11;1.13;;;0.80;;
36105;SDS011;22159;55.736;38.048;2022-07-22T00:35:37;0.70;;;0.70;;
36105;SDS011;22159;55.736;38.048;2022-07-22T00:38:03;0.70;;;0.70;;
36105;SDS011;22159;55.736;38.048;2022-07-22T00:40:29;1.70;;;0.80;;
36105;SDS011;22159;55.736;38.048;2022-07-22T00:42:55;0.70;;;0.52;;
36105;SDS011;22159;55.736;38.048;2022-07-22T00:45:21;2.50;;;0.90;;
36105;SDS011;22159;55.736;38.048;2022-07-22T00:47:47;0.85;;;0.60;;
36105;SDS011;22159;55.736;38.048;2022-07-22T00:50:13;0.82;;;0.73;;
36105;SDS011;22159;55.736;38.048;2022-07-22T00:52:40;0.85;;;0.45;;
36105;SDS011;22159;55.736;38.048;2022-07-22T00:55:06;1.58;;;0.60;;
36105;SDS011;22159;55.736;38.048;2022-07-22T00:57:33;2.67;;;0.70;;
36105;SDS011;22159;55.736;38.048;2022-07-22T00:59:59;1.17;;;0.70;;
36105;SDS011;22159;55.736;38.048;2022-07-22T01:02:25;0.68;;;0.65;;
36105;SDS011;22159;55.736;38.048;2022-07-22T01:04:51;0.80;;;0.60;;
36105;SDS011;22159;55.736;38.048;2022-07-22T01:07:17;0.85;;;0.60;;
36105;SDS011;22159;55.736;38.048;2022-07-22T01:09:44;0.70;;;0.60;;
36105;SDS011;22159;55.736;38.048;2022-07-22T01:12:11;1.33;;;0.65;;
36105;SDS011;22159;55.736;38.048;2022-07-22T01:14:37;0.73;;;0.68;;
36105;SDS011;22159;55.736;38.048;2022-07-22T01:17:03;1.52;;;0.90;;
36105;SDS011;22159;55.736;38.048;2022-07-22T01:19:29;0.68;;;0.68;;
36105;SDS011;22159;55.736;38.048;2022-07-22T01:21:55;0.90;;;0.73;;
36105;SDS011;22159;55.736;38.048;2022-07-22T01:24:21;0.63;;;0.63;;
36105;SDS011;22159;55.736;38.048;2022-07-22T01:26:47;0.70;;;0.70;;
36105;SDS011;22159;55.736;38.048;2022-07-22T01:29:13;1.20;;;0.73;;
36105;SDS011;22159;55.736;38.048;2022-07-22T01:31:40;1.75;;;0.65;;
36105;SDS011;22159;55.736;38.048;2022-07-22T01:34:06;0.60;;;0.55;;
36105;SDS011;22159;55.736;38.048;2022-07-22T01:36:32;0.98;;;0.57;;
36105;SDS011;22159;55.736;38.048;2022-07-22T01:38:58;1.30;;;0.70;;
36105;SDS011;22159;55.736;38.048;2022-07-22T01:41:24;1.00;;;0.70;;
36105;SDS011;22159;55.736;38.048;2022-07-22T01:43:50;0.77;;;0.65;;
36105;SDS011;22159;55.736;38.048;2022-07-22T01:46:16;0.60;;;0.60;;
36105;SDS011;22159;55.736;38.048;2022-07-22T01:48:43;1.05;;;0.63;;
36105;SDS011;22159;55.736;38.048;2022-07-22T01:51:09;0.55;;;0.55;;
36105;SDS011;22159;55.736;38.048;2022-07-22T01:53:35;2.65;;;0.60;;
36105;SDS011;22159;55.736;38.048;2022-07-22T01:56:01;1.20;;;0.70;;
36105;SDS011;22159;55.736;38.048;2022-07-22T01:58:28;0.93;;;0.52;;
36105;SDS011;22159;55.736;38.048;2022-07-22T02:00:54;0.43;;;0.43;;
36105;SDS011;22159;55.736;38.048;2022-07-22T02:03:20;2.13;;;0.60;;
36105;SDS011;22159;55.736;38.048;2022-07-22T02:05:46;2.15;;;0.98;;
36105;SDS011;22159;55.736;38.048;2022-07-22T02:08:12;1.05;;;0.57;;
36105;SDS011;22159;55.736;38.048;2022-07-22T02:10:38;0.95;;;0.57;;
36105;SDS011;22159;55.736;38.048;2022-07-22T02:13:05;2.15;;;0.73;;
36105;SDS011;22159;55.736;38.048;2022-07-22T02:15:31;3.20;;;1.00;;
36105;SDS011;22159;55.736;38.048;2022-07-22T02:17:57;0.60;;;0.60;;
36105;SDS011;22159;55.736;38.048;2022-07-22T02:20:23;2.42;;;0.60;;
36105;SDS011;22159;55.736;38.048;2022-07-22T02:22:49;1.17;;;0.70;;
36105;SDS011;22159;55.736;38.048;2022-07-22T02:25:15;0.60;;;0.60;;
36105;SDS011;22159;55.736;38.048;2022-07-22T02:27:42;1.02;;;0.80;;
36105;SDS011;22159;55.736;38.048;2022-07-22T02:30:08;1.85;;;0.60;;
36105;SDS011;22159;55.736;38.048;2022-07-22T02:32:35;1.30;;;0.70;;
36105;SDS011;22159;55.736;38.048;2022-07-22T02:35:01;1.33;;;0.65;;
36105;SDS011;22159;55.736;38.048;2022-07-22T02:37:27;1.48;;;0.70;;
36105;SDS011;22159;55.736;38.048;2022-07-22T02:39:53;0.88;;;0.60;;
36105;SDS011;22159;55.736;38.048;2022-07-22T02:42:19;1.08;;;0.70;;
36105;SDS011;22159;55.736;38.048;2022-07-22T02:44:45;0.63;;;0.60;;
36105;SDS011;22159;55.736;38.048;2022-07-22T02:47:11;0.98;;;0.73;;
36105;SDS011;22159;55.736;38.048;2022-07-22T02:49:37;0.73;;;0.60;;
36105;SDS011;22159;55.736;38.048;2022-07-22T02:52:03;2.33;;;0.65;;
36105;SDS011;22159;55.736;38.048;2022-07-22T02:54:29;3.08;;;0.77;;
36105;SDS011;22159;55.736;38.048;2022-07-22T02:56:55;0.85;;;0.70;;
36105;SDS011;22159;55.736;38.048;2022-07-22T02:59:22;1.08;;;0.73;;
36105;SDS011;22159;55.736;38.048;2022-07-22T03:01:48;1.27;;;0.68;;
36105;SDS011;22159;55.736;38.048;2022-07-22T03:04:14;0.68;;;0.65;;
36105;SDS011;22159;55.736;38.048;2022-07-22T03:06:40;1.52;;;0.73;;
36105;SDS011;22159;55.736;38.048;2022-07-22T03:09:06;2.53;;;0.75;;
36105;SDS011;22159;55.736;38.048;2022-07-22T03:11:32;0.80;;;0.73;;
36105;SDS011;22159;55.736;38.048;2022-07-22T03:13:58;1.10;;;0.73;;
36105;SDS011;22159;55.736;38.048;2022-07-22T03:16:24;1.90;;;0.70;;
36105;SDS011;22159;55.736;38.048;2022-07-22T03:18:50;0.57;;;0.52;;
36105;SDS011;22159;55.736;38.048;2022-07-22T03:21:16;1.95;;;0.65;;
36105;SDS011;22159;55.736;38.048;2022-07-22T03:23:42;1.40;;;0.90;;
36105;SDS011;22159;55.736;38.048;2022-07-22T03:26:08;0.88;;;0.70;;
36105;SDS011;22159;55.736;38.048;2022-07-22T03:28:34;0.77;;;0.77;;
36105;SDS011;22159;55.736;38.048;2022-07-22T03:31:00;1.08;;;0.80;;
36105;SDS011;22159;55.736;38.048;2022-07-22T03:33:26;3.15;;;1.02;;
36105;SDS011;22159;55.736;38.048;2022-07-22T03:35:52;2.70;;;0.65;;
36105;SDS011;22159;55.736;38.048;2022-07-22T03:38:18;4.07;;;0.75;;
36105;SDS011;22159;55.736;38.048;2022-07-22T03:40:44;2.53;;;0.57;;
36105;SDS011;22159;55.736;38.048;2022-07-22T03:43:10;3.17;;;0.95;;
36105;SDS011;22159;55.736;38.048;2022-07-22T03:45:37;1.38;;;0.70;;
36105;SDS011;22159;55.736;38.048;2022-07-22T03:48:03;1.23;;;0.70;;
36105;SDS011;22159;55.736;38.048;2022-07-22T03:50:29;1.85;;;0.70;;
36105;SDS011;22159;55.736;38.048;2022-07-22T03:52:55;2.88;;;0.73;;
36105;SDS011;22159;55.736;38.048;2022-07-22T03:55:21;3.33;;;1.00;;
36105;SDS011;22159;55.736;38.048;2022-07-22T03:57:47;0.95;;;0.82;;
36105;SDS011;22159;55.736;38.048;2022-07-22T04:00:13;2.25;;;0.95;;
36105;SDS011;22159;55.736;38.048;2022-07-22T04:02:39;2.08;;;0.80;;
36105;SDS011;22159;55.736;38.048;2022-07-22T04:05:06;2.55;;;0.90;;
36105;SDS011;22159;55.736;38.048;2022-07-22T04:07:32;5.15;;;1.10;;
36105;SDS011;22159;55.736;38.048;2022-07-22T04:09:58;2.55;;;0.80;;
36105;SDS011;22159;55.736;38.048;2022-07-22T04:12:37;3.05;;;0.98;;
36105;SDS011;22159;55.736;38.048;2022-07-22T04:15:04;1.27;;;0.90;;
36105;SDS011;22159;55.736;38.048;2022-07-22T04:17:30;1.48;;;0.80;;
36105;SDS011;22159;55.736;38.048;2022-07-22T04:19:56;1.08;;;0.63;;
36105;SDS011;22159;55.736;38.048;2022-07-22T04:22:24;0.90;;;0.70;;
36105;SDS011;22159;55.736;38.048;2022-07-22T04:24:50;2.15;;;1.02;;
36105;SDS011;22159;55.736;38.048;2022-07-22T04:27:16;1.48;;;0.73;;
36105;SDS011;22159;55.736;38.048;2022-07-22T04:29:42;2.15;;;0.98;;
36105;SDS011;22159;55.736;38.048;2022-07-22T04:32:08;2.97;;;0.98;;
36105;SDS011;22159;55.736;38.048;2022-07-22T04:34:34;2.78;;;0.90;;
36105;SDS011;22159;55.736;38.048;2022-07-22T04:37:00;3.38;;;1.17;;
36105;SDS011;22159;55.736;38.048;2022-07-22T04:39:26;3.45;;;1.08;;
36105;SDS011;22159;55.736;38.048;2022-07-22T04:41:52;2.38;;;1.02;;
36105;SDS011;22159;55.736;38.048;2022-07-22T04:44:18;4.63;;;1.30;;
36105;SDS011;22159;55.736;38.048;2022-07-22T04:46:44;3.20;;;1.60;;
36105;SDS011;22159;55.736;38.048;2022-07-22T04:49:10;7.15;;;1.63;;
36105;SDS011;22159;55.736;38.048;2022-07-22T04:51:36;3.33;;;1.63;;
36105;SDS011;22159;55.736;38.048;2022-07-22T04:54:02;5.22;;;1.88;;
36105;SDS011;22159;55.736;38.048;2022-07-22T04:56:28;2.83;;;1.52;;
36105;SDS011;22159;55.736;38.048;2022-07-22T04:58:55;4.43;;;1.80;;
36105;SDS011;22159;55.736;38.048;2022-07-22T05:01:21;4.82;;;1.50;;
36105;SDS011;22159;55.736;38.048;2022-07-22T05:03:47;2.83;;;1.58;;
36105;SDS011;22159;55.736;38.048;2022-07-22T05:06:13;2.88;;;1.40;;
36105;SDS011;22159;55.736;38.048;2022-07-22T05:08:39;5.45;;;1.67;;
36105;SDS011;22159;55.736;38.048;2022-07-22T05:11:06;5.57;;;1.60;;
36105;SDS011;22159;55.736;38.048;2022-07-22T05:13:32;3.38;;;1.40;;
36105;SDS011;22159;55.736;38.048;2022-07-22T05:16:01;2.58;;;1.50;;
36105;SDS011;22159;55.736;38.048;2022-07-22T05:18:27;3.60;;;1.15;;
36105;SDS011;22159;55.736;38.048;2022-07-22T05:20:53;4.03;;;1.70;;
36105;SDS011;22159;55.736;38.048;2022-07-22T05:23:19;2.70;;;1.50;;
36105;SDS011;22159;55.736;38.048;2022-07-22T05:25:45;3.30;;;1.40;;
36105;SDS011;22159;55.736;38.048;2022-07-22T05:28:11;2.95;;;1.73;;
36105;SDS011;22159;55.736;38.048;2022-07-22T05:30:37;3.28;;;1.23;;
36105;SDS011;22159;55.736;38.048;2022-07-22T05:33:03;2.72;;;1.20;;
36105;SDS011;22159;55.736;38.048;2022-07-22T05:35:30;2.53;;;1.50;;
36105;SDS011;22159;55.736;38.048;2022-07-22T05:37:56;6.07;;;1.50;;
36105;SDS011;22159;55.736;38.048;2022-07-22T05:40:22;4.00;;;1.48;;
36105;SDS011;22159;55.736;38.048;2022-07-22T05:42:48;4.88;;;1.30;;
36105;SDS011;22159;55.736;38.048;2022-07-22T05:45:14;2.47;;;1.40;;
36105;SDS011;22159;55.736;38.048;2022-07-22T05:47:40;3.33;;;1.40;;
36105;SDS011;22159;55.736;38.048;2022-07-22T05:50:06;1.65;;;1.08;;
36105;SDS011;22159;55.736;38.048;2022-07-22T05:52:34;3.47;;;1.25;;
36105;SDS011;22159;55.736;38.048;2022-07-22T05:55:01;2.67;;;1.42;;
36105;SDS011;22159;55.736;38.048;2022-07-22T05:57:27;2.03;;;1.15;;
36105;SDS011;22159;55.736;38.048;2022-07-22T05:59:53;1.67;;;1.10;;
36105;SDS011;22159;55.736;38.048;2022-07-22T06:02:19;2.28;;;1.23;;
36105;SDS011;22159;55.736;38.048;2022-07-22T06:04:45;3.47;;;1.25;;
36105;SDS011;22159;55.736;38.048;2022-07-22T06:07:12;2.55;;;1.23;;
36105;SDS011;22159;55.736;38.048;2022-07-22T06:09:38;1.33;;;1.23;;
36105;SDS011;22159;55.736;38.048;2022-07-22T06:12:04;2.97;;;1.40;;
36105;SDS011;22159;55.736;38.048;2022-07-22T06:14:30;1.80;;;1.10;;
36105;SDS011;22159;55.736;38.048;2022-07-22T06:16:56;1.60;;;1.10;;
36105;SDS011;22159;55.736;38.048;2022-07-22T06:19:22;1.80;;;1.13;;
36105;SDS011;22159;55.736;38.048;2022-07-22T06:21:49;1.23;;;1.08;;
36105;SDS011;22159;55.736;38.048;2022-07-22T06:24:15;2.50;;;1.23;;
36105;SDS011;22159;55.736;38.048;2022-07-22T06:26:42;2.47;;;1.33;;
36105;SDS011;22159;55.736;38.048;2022-07-22T06:29:09;3.85;;;1.42;;
36105;SDS011;22159;55.736;38.048;2022-07-22T06:31:35;1.40;;;1.10;;
36105;SDS011;22159;55.736;38.048;2022-07-22T06:34:01;2.42;;;1.40;;
36105;SDS011;22159;55.736;38.048;2022-07-22T06:36:33;2.58;;;1.40;;
36105;SDS011;22159;55.736;38.048;2022-07-22T06:38:59;2.22;;;1.15;;
36105;SDS011;22159;55.736;38.048;2022-07-22T06:41:25;2.53;;;1.13;;
36105;SDS011;22159;55.736;38.048;2022-07-22T06:43:51;1.30;;;1.20;;
36105;SDS011;22159;55.736;38.048;2022-07-22T06:46:17;2.30;;;1.23;;
36105;SDS011;22159;55.736;38.048;2022-07-22T06:48:43;1.50;;;1.00;;
36105;SDS011;22159;55.736;38.048;2022-07-22T06:51:10;1.95;;;1.23;;
36105;SDS011;22159;55.736;38.048;2022-07-22T06:53:36;1.90;;;1.17;;
36105;SDS011;22159;55.736;38.048;2022-07-22T06:56:02;1.65;;;1.02;;
36105;SDS011;22159;55.736;38.048;2022-07-22T06:58:28;3.75;;;1.35;;
36105;SDS011;22159;55.736;38.048;2022-07-22T07:00:54;4.03;;;1.20;;
36105;SDS011;22159;55.736;38.048;2022-07-22T07:03:20;1.10;;;0.95;;
36105;SDS011;22159;55.736;38.048;2022-07-22T07:05:48;2.50;;;1.15;;
36105;SDS011;22159;55.736;38.048;2022-07-22T07:08:14;1.90;;;1.10;;
36105;SDS011;22159;55.736;38.048;2022-07-22T07:10:40;2.13;;;1.20;;
36105;SDS011;22159;55.736;38.048;2022-07-22T07:13:06;2.45;;;1.20;;
36105;SDS011;22159;55.736;38.048;2022-07-22T07:15:32;2.35;;;1.10;;
36105;SDS011;22159;55.736;38.048;2022-07-22T07:17:58;2.13;;;1.10;;
36105;SDS011;22159;55.736;38.048;2022-07-22T07:20:24;2.50;;;1.33;;
36105;SDS011;22159;55.736;38.048;2022-07-22T07:22:50;2.22;;;1.27;;
36105;SDS011;22159;55.736;38.048;2022-07-22T07:25:16;2.33;;;1.33;;
36105;SDS011;22159;55.736;38.048;2022-07-22T07:27:42;2.85;;;1.30;;
36105;SDS011;22159;55.736;38.048;2022-07-22T07:30:08;1.98;;;1.08;;
36105;SDS011;22159;55.736;38.048;2022-07-22T07:32:35;1.48;;;1.02;;
36105;SDS011;22159;55.736;38.048;2022-07-22T07:35:02;1.50;;;1.10;;
36105;SDS011;22159;55.736;38.048;2022-07-22T07:37:28;1.95;;;1.20;;
36105;SDS011;22159;55.736;38.048;2022-07-22T07:39:54;3.83;;;1.20;;
36105;SDS011;22159;55.736;38.048;2022-07-22T07:42:20;3.08;;;1.30;;
36105;SDS011;22159;55.736;38.048;2022-07-22T07:44:46;3.15;;;1.20;;
36105;SDS011;22159;55.736;38.048;2022-07-22T07:47:12;1.73;;;1.33;;
36105;SDS011;22159;55.736;38.048;2022-07-22T07:49:42;5.32;;;1.00;;
36105;SDS011;22159;55.736;38.048;2022-07-22T07:52:09;2.72;;;1.10;;
36105;SDS011;22159;55.736;38.048;2022-07-22T07:54:35;1.15;;;0.90;;
36105;SDS011;22159;55.736;38.048;2022-07-22T07:57:01;1.88;;;1.08;;
36105;SDS011;22159;55.736;38.048;2022-07-22T07:59:27;2.78;;;1.17;;
36105;SDS011;22159;55.736;38.048;2022-07-22T08:01:53;2.67;;;1.13;;
36105;SDS011;22159;55.736;38.048;2022-07-22T08:04:19;2.03;;;1.30;;
36105;SDS011;22159;55.736;38.048;2022-07-22T08:06:45;1.48;;;1.30;;
36105;SDS011;22159;55.736;38.048;2022-07-22T08:09:11;1.90;;;1.20;;
36105;SDS011;22159;55.736;38.048;2022-07-22T08:11:37;3.67;;;1.20;;
36105;SDS011;22159;55.736;38.048;2022-07-22T08:14:03;3.63;;;1.20;;
36105;SDS011;22159;55.736;38.048;2022-07-22T08:16:29;1.80;;;1.10;;
36105;SDS011;22159;55.736;38.048;2022-07-22T08:18:57;1.20;;;1.10;;
36105;SDS011;22159;55.736;38.048;2022-07-22T08:21:23;1.40;;;1.20;;
36105;SDS011;22159;55.736;38.048;2022-07-22T08:23:50;3.72;;;1.00;;
36105;SDS011;22159;55.736;38.048;2022-07-22T08:26:16;1.33;;;1.10;;
36105;SDS011;22159;55.736;38.048;2022-07-22T08:28:42;2.85;;;1.30;;
36105;SDS011;22159;55.736;38.048;2022-07-22T08:31:08;1.60;;;1.23;;
36105;SDS011;22159;55.736;38.048;2022-07-22T08:33:34;2.33;;;1.40;;
36105;SDS011;22159;55.736;38.048;2022-07-22T08:36:00;1.33;;;1.23;;
36105;SDS011;22159;55.736;38.048;2022-07-22T08:38:27;1.35;;;1.25;;
36105;SDS011;22159;55.736;38.048;2022-07-22T08:40:54;2.00;;;0.95;;
36105;SDS011;22159;55.736;38.048;2022-07-22T08:43:20;1.17;;;1.05;;
36105;SDS011;22159;55.736;38.048;2022-07-22T08:45:46;1.52;;;1.20;;
36105;SDS011;22159;55.736;38.048;2022-07-22T08:48:13;1.67;;;1.00;;
36105;SDS011;22159;55.736;38.048;2022-07-22T08:50:39;1.38;;;1.00;;
36105;SDS011;22159;55.736;38.048;2022-07-22T08:53:08;2.13;;;1.10;;
36105;SDS011;22159;55.736;38.048;2022-07-22T08:55:39;1.65;;;1.15;;
36105;SDS011;22159;55.736;38.048;2022-07-22T08:58:05;2.03;;;1.00;;
36105;SDS011;22159;55.736;38.048;2022-07-22T09:00:32;2.78;;;1.40;;
36105;SDS011;22159;55.736;38.048;2022-07-22T09:02:58;3.20;;;1.10;;
36105;SDS011;22159;55.736;38.048;2022-07-22T09:05:24;4.03;;;1.25;;
36105;SDS011;22159;55.736;38.048;2022-07-22T09:07:58;5.35;;;0.98;;
36105;SDS011;22159;55.736;38.048;2022-07-22T09:10:30;2.75;;;1.10;;
36105;SDS011;22159;55.736;38.048;2022-07-22T09:12:57;1.90;;;1.00;;
36105;SDS011;22159;55.736;38.048;2022-07-22T09:15:25;3.72;;;1.20;;
36105;SDS011;22159;55.736;38.048;2022-07-22T09:17:52;2.80;;;1.00;;
36105;SDS011;22159;55.736;38.048;2022-07-22T09:20:19;2.42;;;1.02;;
36105;SDS011;22159;55.736;38.048;2022-07-22T09:22:46;5.90;;;1.23;;
36105;SDS011;22159;55.736;38.048;2022-07-22T09:25:16;2.25;;;0.95;;
36105;SDS011;22159;55.736;38.048;2022-07-22T09:27:43;2.72;;;1.17;;
36105;SDS011;22159;55.736;38.048;2022-07-22T09:30:14;2.60;;;1.10;;
36105;SDS011;22159;55.736;38.048;2022-07-22T09:32:40;1.73;;;0.88;;
36105;SDS011;22159;55.736;38.048;2022-07-22T09:35:07;2.50;;;1.10;;
36105;SDS011;22159;55.736;38.048;2022-07-22T09:37:33;6.20;;;1.30;;
36105;SDS011;22159;55.736;38.048;2022-07-22T09:40:12;2.38;;;1.20;;
36105;SDS011;22159;55.736;38.048;2022-07-22T09:42:45;1.50;;;1.10;;
36105;SDS011;22159;55.736;38.048;2022-07-22T09:45:11;3.22;;;0.98;;
36105;SDS011;22159;55.736;38.048;2022-07-22T09:47:37;4.47;;;1.30;;
36105;SDS011;22159;55.736;38.048;2022-07-22T09:50:28;3.22;;;1.02;;
36105;SDS011;22159;55.736;38.048;2022-07-22T09:52:53;2.55;;;0.95;;
36105;SDS011;22159;55.736;38.048;2022-07-22T09:55:20;1.30;;;1.05;;
36105;SDS011;22159;55.736;38.048;2022-07-22T09:57:47;3.58;;;1.17;;
36105;SDS011;22159;55.736;38.048;2022-07-22T10:00:13;2.45;;;1.20;;
36105;SDS011;22159;55.736;38.048;2022-07-22T10:02:43;1.35;;;1.00;;
36105;SDS011;22159;55.736;38.048;2022-07-22T10:05:11;1.70;;;1.00;;
36105;SDS011;22159;55.736;38.048;2022-07-22T10:07:38;2.65;;;1.00;;
36105;SDS011;22159;55.736;38.048;2022-07-22T10:10:04;2.05;;;1.00;;
36105;SDS011;22159;55.736;38.048;2022-07-22T10:12:31;1.50;;;0.73;;
36105;SDS011;22159;55.736;38.048;2022-07-22T10:14:57;3.53;;;1.50;;
36105;SDS011;22159;55.736;38.048;2022-07-22T10:17:23;1.60;;;0.80;;
36105;SDS011;22159;55.736;38.048;2022-07-22T10:19:49;2.20;;;0.95;;
36105;SDS011;22159;55.736;38.048;2022-07-22T10:25:18;2.63;;;0.98;;
36105;SDS011;22159;55.736;38.048;2022-07-22T10:27:48;2.35;;;1.02;;
36105;SDS011;22159;55.736;38.048;2022-07-22T10:30:16;1.85;;;1.02;;
36105;SDS011;22159;55.736;38.048;2022-07-22T10:32:42;1.15;;;1.05;;
36105;SDS011;22159;55.736;38.048;2022-07-22T10:40:18;1.23;;;1.08;;
36105;SDS011;22159;55.736;38.048;2022-07-22T10:45:24;1.77;;;1.13;;
36105;SDS011;22159;55.736;38.048;2022-07-22T10:50:43;1.35;;;1.15;;
36105;SDS011;22159;55.736;38.048;2022-07-22T10:53:13;1.10;;;1.00;;
36105;SDS011;22159;55.736;38.048;2022-07-22T11:01:00;1.27;;;1.17;;
36105;SDS011;22159;55.736;38.048;2022-07-22T11:03:30;1.40;;;1.20;;
36105;SDS011;22159;55.736;38.048;2022-07-22T11:05:56;0.93;;;0.85;;
36105;SDS011;22159;55.736;38.048;2022-07-22T11:08:24;1.25;;;1.15;;
36105;SDS011;22159;55.736;38.048;2022-07-22T11:10:51;1.23;;;1.10;;
36105;SDS011;22159;55.736;38.048;2022-07-22T11:13:32;2.35;;;1.27;;
36105;SDS011;22159;55.736;38.048;2022-07-22T11:18:47;1.55;;;1.45;;
36105;SDS011;22159;55.736;38.048;2022-07-22T11:21:14;2.37;;;1.20;;
36105;SDS011;22159;55.736;38.048;2022-07-22T11:23:41;3.35;;;1.02;;
36105;SDS011;22159;55.736;38.048;2022-07-22T11:26:13;1.83;;;1.20;;
36105;SDS011;22159;55.736;38.048;2022-07-22T11:28:40;1.50;;;1.15;;
36105;SDS011;22159;55.736;38.048;2022-07-22T11:31:07;1.10;;;1.00;;
36105;SDS011;22159;55.736;38.048;2022-07-22T11:33:33;2.05;;;0.90;;
36105;SDS011;22159;55.736;38.048;2022-07-22T11:36:06;2.38;;;1.30;;
36105;SDS011;22159;55.736;38.048;2022-07-22T11:41:10;2.05;;;1.10;;
36105;SDS011;22159;55.736;38.048;2022-07-22T11:43:40;1.50;;;1.15;;
36105;SDS011;22159;55.736;38.048;2022-07-22T11:46:07;1.60;;;1.20;;
36105;SDS011;22159;55.736;38.048;2022-07-22T11:48:33;1.58;;;1.30;;
36105;SDS011;22159;55.736;38.048;2022-07-22T11:51:02;1.17;;;1.08;;
36105;SDS011;22159;55.736;38.048;2022-07-22T11:53:28;1.90;;;1.05;;
36105;SDS011;22159;55.736;38.048;2022-07-22T11:56:01;1.13;;;0.90;;
36105;SDS011;22159;55.736;38.048;2022-07-22T12:01:10;1.25;;;1.10;;
36105;SDS011;22159;55.736;38.048;2022-07-22T12:03:37;0.98;;;0.98;;
36105;SDS011;22159;55.736;38.048;2022-07-22T12:06:04;2.08;;;1.10;;
36105;SDS011;22159;55.736;38.048;2022-07-22T12:08:30;1.70;;;1.13;;
36105;SDS011;22159;55.736;38.048;2022-07-22T12:10:57;1.80;;;1.00;;
36105;SDS011;22159;55.736;38.048;2022-07-22T12:13:30;1.98;;;1.17;;
36105;SDS011;22159;55.736;38.048;2022-07-22T12:15:56;3.00;;;1.20;;
36105;SDS011;22159;55.736;38.048;2022-07-22T12:18:23;1.20;;;1.10;;
36105;SDS011;22159;55.736;38.048;2022-07-22T12:20:50;3.35;;;1.10;;
36105;SDS011;22159;55.736;38.048;2022-07-22T12:23:16;0.98;;;0.95;;
36105;SDS011;22159;55.736;38.048;2022-07-22T12:25:50;3.97;;;1.20;;
36105;SDS011;22159;55.736;38.048;2022-07-22T12:28:16;1.23;;;1.00;;
36105;SDS011;22159;55.736;38.048;2022-07-22T12:30:42;1.52;;;1.20;;
36105;SDS011;22159;55.736;38.048;2022-07-22T12:33:14;1.17;;;1.08;;
36105;SDS011;22159;55.736;38.048;2022-07-22T12:35:41;1.52;;;1.10;;
36105;SDS011;22159;55.736;38.048;2022-07-22T12:38:08;3.83;;;1.00;;
36105;SDS011;22159;55.736;38.048;2022-07-22T12:40:34;1.27;;;1.15;;
36105;SDS011;22159;55.736;38.048;2022-07-22T12:43:09;1.20;;;1.10;;
36105;SDS011;22159;55.736;38.048;2022-07-22T12:45:36;1.38;;;1.10;;
36105;SDS011;22159;55.736;38.048;2022-07-22T12:53:02;1.30;;;1.20;;
36105;SDS011;22159;55.736;38.048;2022-07-22T12:55:29;1.40;;;1.20;;
36105;SDS011;22159;55.736;38.048;2022-07-22T12:57:56;2.72;;;1.20;;
36105;SDS011;22159;55.736;38.048;2022-07-22T13:00:24;1.77;;;1.30;;
36105;SDS011;22159;55.736;38.048;2022-07-22T13:02:50;1.83;;;1.25;;
36105;SDS011;22159;55.736;38.048;2022-07-22T13:05:16;1.30;;;1.15;;
36105;SDS011;22159;55.736;38.048;2022-07-22T13:07:43;2.45;;;1.30;;
36105;SDS011;22159;55.736;38.048;2022-07-22T13:10:10;1.63;;;1.25;;
36105;SDS011;22159;55.736;38.048;2022-07-22T13:12:36;1.48;;;1.38;;
36105;SDS011;22159;55.736;38.048;2022-07-22T13:15:02;1.83;;;1.23;;
36105;SDS011;22159;55.736;38.048;2022-07-22T13:17:28;2.08;;;1.35;;
36105;SDS011;22159;55.736;38.048;2022-07-22T13:19:54;1.80;;;1.25;;
36105;SDS011;22159;55.736;38.048;2022-07-22T13:22:21;1.70;;;1.00;;
36105;SDS011;22159;55.736;38.048;2022-07-22T13:24:47;2.15;;;1.27;;
36105;SDS011;22159;55.736;38.048;2022-07-22T13:27:13;1.73;;;1.00;;
36105;SDS011;22159;55.736;38.048;2022-07-22T13:29:39;1.83;;;1.00;;
36105;SDS011;22159;55.736;38.048;2022-07-22T13:32:05;1.45;;;1.30;;
36105;SDS011;22159;55.736;38.048;2022-07-22T13:34:31;1.63;;;1.20;;
36105;SDS011;22159;55.736;38.048;2022-07-22T13:36:57;1.55;;;1.08;;
36105;SDS011;22159;55.736;38.048;2022-07-22T13:39:23;2.75;;;1.38;;
36105;SDS011;22159;55.736;38.048;2022-07-22T13:41:49;1.30;;;1.20;;
36105;SDS011;22159;55.736;38.048;2022-07-22T13:44:15;2.53;;;1.27;;
36105;SDS011;22159;55.736;38.048;2022-07-22T13:46:42;1.38;;;1.10;;
36105;SDS011;22159;55.736;38.048;2022-07-22T13:49:08;1.05;;;0.90;;
36105;SDS011;22159;55.736;38.048;2022-07-22T13:51:34;2.65;;;1.27;;
36105;SDS011;22159;55.736;38.048;2022-07-22T13:54:00;1.58;;;1.20;;
36105;SDS011;22159;55.736;38.048;2022-07-22T13:56:26;1.55;;;1.08;;
36105;SDS011;22159;55.736;38.048;2022-07-22T13:58:52;1.00;;;1.00;;
36105;SDS011;22159;55.736;38.048;2022-07-22T14:01:18;1.48;;;1.20;;
36105;SDS011;22159;55.736;38.048;2022-07-22T14:03:44;1.17;;;1.02;;
36105;SDS011;22159;55.736;38.048;2022-07-22T14:06:10;1.85;;;1.20;;
36105;SDS011;22159;55.736;38.048;2022-07-22T14:08:36;1.85;;;1.15;;
36105;SDS011;22159;55.736;38.048;2022-07-22T14:11:03;1.45;;;1.35;;
36105;SDS011;22159;55.736;38.048;2022-07-22T14:13:29;2.35;;;1.30;;
36105;SDS011;22159;55.736;38.048;2022-07-22T14:15:55;4.35;;;1.30;;
36105;SDS011;22159;55.736;38.048;2022-07-22T14:18:21;1.67;;;1.38;;
36105;SDS011;22159;55.736;38.048;2022-07-22T14:20:47;1.45;;;1.15;;
36105;SDS011;22159;55.736;38.048;2022-07-22T14:23:13;1.88;;;1.42;;
36105;SDS011;22159;55.736;38.048;2022-07-22T14:25:41;1.70;;;1.45;;
36105;SDS011;22159;55.736;38.048;2022-07-22T14:28:07;1.80;;;1.60;;
36105;SDS011;22159;55.736;38.048;2022-07-22T14:30:33;2.85;;;1.40;;
36105;SDS011;22159;55.736;38.048;2022-07-22T14:33:00;1.40;;;1.10;;
36105;SDS011;22159;55.736;38.048;2022-07-22T14:35:26;1.35;;;1.10;;
36105;SDS011;22159;55.736;38.048;2022-07-22T14:37:53;2.67;;;1.15;;
36105;SDS011;22159;55.736;38.048;2022-07-22T14:40:19;1.73;;;1.10;;
36105;SDS011;22159;55.736;38.048;2022-07-22T14:42:46;1.90;;;1.25;;
36105;SDS011;22159;55.736;38.048;2022-07-22T14:45:13;2.25;;;1.00;;
36105;SDS011;22159;55.736;38.048;2022-07-22T14:47:39;1.38;;;1.20;;
36105;SDS011;22159;55.736;38.048;2022-07-22T14:50:06;1.25;;;1.15;;
36105;SDS011;22159;55.736;38.048;2022-07-22T14:52:32;1.35;;;1.17;;
36105;SDS011;22159;55.736;38.048;2022-07-22T14:54:58;1.20;;;1.10;;
36105;SDS011;22159;55.736;38.048;2022-07-22T14:57:24;1.55;;;1.45;;
36105;SDS011;22159;55.736;38.048;2022-07-22T14:59:50;1.30;;;1.20;;
36105;SDS011;22159;55.736;38.048;2022-07-22T15:02:16;1.95;;;1.38;;